This is the latest recevied weather packets stored in our database for station/object WJ4X-13. If no packets are shown the sender has not sent any weather packets the latest 10 day(s).
| Time | Temp. | Humidity | Pressure | Rain* | Wind** | Luminosity | Snow |
|---|---|---|---|---|---|---|---|
| 1777527046 | 19.44° C | 92% | 1010.3 hPa | 0 mm | - | - | - |
| 1777522546 | 20° C | 90% | 1011 hPa | 0 mm | - | - | - |
| 1777521639 | 20° C | 89% | 1011 hPa | 0 mm | - | - | - |
| 1777519832 | 20° C | 88% | 1010.9 hPa | 0 mm | - | - | - |
| 1777507229 | 23.33° C | 77% | 1009.6 hPa | 0 mm | - | - | - |
| 1777505423 | 25° C | 69% | 1009.6 hPa | 0 mm | - | - | - |
| 1777498222 | 27.22° C | 67% | 1009.6 hPa | 0 mm | - | - | - |
| 1777495506 | 27.22° C | 68% | 1010.3 hPa | 0 mm | - | - | - |
| 1777485644 | 25° C | 76% | 1012.7 hPa | 0 mm | - | - | - |
| 1777478426 | 21.67° C | 83% | 1014.4 hPa | 0 mm | - | - | - |
| 1777473013 | 19.44° C | 92% | 1014.9 hPa | 0 mm | - | - | - |
| 1777467602 | 16.67° C | 100% | 1015.7 hPa | 0 mm | - | - | - |
| 1777464955 | 16.11° C | 100% | 1015.6 hPa | 0 mm | - | - | - |
| 1777464054 | 16.11° C | 100% | 1015.4 hPa | 0 mm | - | - | - |
| 1777463152 | 16.11° C | 100% | 1015.6 hPa | 0 mm | - | - | - |
| 1777458645 | 15.56° C | 100% | 1016.6 hPa | 0 mm | - | - | - |
| 1777456850 | 15.56° C | 100% | 1016.9 hPa | 0 mm | - | - | - |
| 1777452335 | 15° C | 99% | 1016.5 hPa | 0 mm | - | - | - |
| 1777450531 | 15° C | 99% | 1016.7 hPa | 0 mm | - | - | - |
| 1777443314 | 13.89° C | 99% | 1017.2 hPa | 0 mm | - | - | - |
| 1777442412 | 14.44° C | 98% | 1017.1 hPa | 0 mm | - | - | - |
| 1777439708 | 15° C | 99% | 1016.9 hPa | 0 mm | - | - | - |
* Rain latest hour (hover to see other rain measurements)
** Current wind speed in m/s (hover to see current wind gust speed)